Pagina principale
METAR-TAF:

METAR-TAF

Aeroporti :

Aeroporto di Reggio Calabria

Reggio Calabria, Italia

latitudine: 38-04N, longitudine: 015-39E, altezza: 11 m

Osservazione

Il bollettino è stato emesso 3 ore e 35 minuti fa, alle 22:50 UTC
Vento 12 kt da nord
Temperature 13°C
Umidità 77%
Pressione 1027 hPa
Visibilità 10 km o più
Nubi sparse ad un'altezza di 3000 ft

METAR: LICR 232250Z 01012KT 9999 SCT030 13/09 Q1027

Ora: 03:25 (02:25 UTC)

Previsione

Il bollettino è stato emesso 9 ore e 25 minuti fa, alle 17:00 UTC
Previsione valida dal 23 alle 18 UTC al 24 alle 18 UTC
Vento 16 kt da nord
Visibilità 10 km o più
Poco nuvoloso ad un'altezza di 4000 ft

TAF: LICR 231700Z 2318/2418 35016KT 9999 FEW040

Osservazioni e previsioni meteorologiche di più di 4000 aeroporti (messaggi METAR e TAF).

Le stazioni disponibili sono rappresentate dai dischi gialli e rossi sulla carta.

Puntare il mouse per vedere il nome della stazione.

Clicca sopra per visualizzare le osservazioni e previsioni meteorologiche.

Per cambiare la mappa : fare clic sui pulsanti verdi con una croce nera per ingrandire, il pulsante verde con un trattino per diminuire, o sulla freccia verde per le mappe adiacenti.


METAR-TAF: